Muncie, IN

3:55 AM EDT on July 22, 2017 (GMT -0400)
Sunset Knoll | | Change Station
Active Advisory: Severe Thunderstorm Watch

Elev 913 ft 40.21 °N, 85.42 °W | Updated 21 seconds ago

Mostly Cloudy
Mostly Cloudy
75.1 °F
Feels Like 74 °F
N
3.0
Wind Variable Wind from SSW

Today
High -- | Low -- °F
--% Chance of Precip.
Yesterday
High -- | Low -- °F
Precip. -- in
Pressure 29.84 in
Visibility 10.0 miles
Clouds Mostly Cloudy 10000 ft
Heat Index 74 °F
Dew Point 72 °F
Humidity 91%
Rainfall 0.05 in
Snow Depth Not available.
6:30 AM 9:05 PM
Waning Crescent, 2% visible
METAR KMIE 220753Z AUTO 19007KT 10SM BKN100 26/23 A2988 RMK AO2 LTG DSNT W-NE SLP105 T02560228
Pressure 29.84 in
Visibility 10.0 miles
Clouds Mostly Cloudy 10000 ft
Heat Index 74 °F
Dew Point 72 °F
Humidity 91%
Rainfall 0.05 in
Snow Depth Not available.
6:30 AM 9:05 PM
Waning Crescent, 2% visible
METAR KMIE 220753Z AUTO 19007KT 10SM BKN100 26/23 A2988 RMK AO2 LTG DSNT W-NE SLP105 T02560228

Get Your Daily Forecast Email!

Thanks for signing up!

Be on the lookout for a verification email in your inbox.

You'll start receiving severe weather alerts in your inbox..

×

10-Day Weather Forecast

Almanac

Astronomy

Jul. 22, 2017 Rise Set
Actual Time
Civil Twilight
Nautical Twilight
Astronomical Twilight
Moon
Length of Visible Light
Length of Day
Tomorrow will be .
, % of the Moon is Illuminated

Today's Extremes

State Highs State Lows

Community

WunderPhotos

Category 6

Welcome to Category 6. This is the collective home for Weather Underground's featured writeups by Dr. Jeff Masters (right), Bob Henson (left), Chris Burt, and other regular contributors.

Nearby

Air Quality

  Air Quality AQ Index Pollutant
Not available.

Snow Depth

Station Depth Elevation

Earthquake Activity

City Distance Mag. Time & Date
Minimum magnitude displayed is 2.5.

Coastal Water Temperatures

Place Temperature

Stations

Nearby Weather Stations

Station Location Temp. Windchill Dew Point Humidity Wind Precip. Elev Updated Type
                   

Watches & Warnings

Severe Thunderstorm Watch
Issued: 3:52 AM EDT Jul. 22, 2017 – National Weather Service


Severe Thunderstorm Watch 431 remains valid until 7 am EDT this
morning for the following areas

In Indiana this watch includes 14 counties

In central Indiana

Boone Decatur Hamilton
Hancock Hendricks Johnson
Madison Marion rush
Shelby Tipton

In east central Indiana

Delaware Henry Randolph

This includes the cities of Anderson, Indianapolis, Muncie,
and Shelbyville.